EGCK

Caernarfon Airport

Caernarfon, United Kingdom
METAR EGCK 250550Z AUTO 05003KT 9999 NCD 14/11 Q1026
Observed Flight Rules
Jun-25 @ 05:50 UTC (28 minutes ago) Visual Flight Rules
Wind Visibility Clouds
50° at 3 knots 10,000+ meters
  • Clear skies
Temperatures Readings
Current 14°C / 57°F
Dewpoint 11°C / 52°F
Humidity 82%
Altimeter 30.3" Hg
Pressure 1026 hPa
Elevation 0
METAR EGCK 250550Z AUTO 05003KT 9999 NCD 14/11 Q1026
Observed Flight Rules
Jun-25 @ 05:50 UTC
(28 minutes ago)
VFR
Wind Visibility
50° at 3 knots 10,000+ meters
Clouds
  • Clear skies
Temperature Dewpoint
14°C / 57°F 11°C / 52°F
Humidity Altimeter Pressure
82% 30.3" Hg 1026 hPa